Data for 10/10/2018

Time Sea-Level Adjusted Pressure Absolute Pressure Temperature Relative Humidity Dew Point   
(mb) (inHg) (mb) (inHg) (C) (F) (%) (C) (F)
00:05 1017 30.03 846 24.98 1.1 34 71 -3.5 25.6
00:10 1017 30.03 846 24.98 1.1 34 70 -3.7 25.3
00:15 1017 30.03 846 24.98 1.1 34 71 -3.6 25.6
00:20 1017 30.03 846 24.98 1.1 33.9 71 -3.7 25.4
00:25 1017 30.03 846 24.98 1.1 34 71 -3.6 25.5
00:30 1017 30.03 846 24.98 1.1 34 71 -3.6 25.5
00:35 1017 30.03 846 24.98 1 33.9 72 -3.5 25.7
00:40 1017 30.03 846 24.98 0.9 33.7 72 -3.5 25.7
00:45 1017 30.03 846 24.98 0.9 33.6 72 -3.6 25.6
00:50 1017 30.03 846 24.98 0.8 33.5 72 -3.6 25.5
00:55 1017 30.03 846 24.98 0.8 33.5 73 -3.5 25.7
01:00 1017 30.03 846 24.98 0.8 33.4 73 -3.5 25.7
01:05 1017 30.03 846 24.98 0.8 33.4 74 -3.4 25.8
01:10 1017 30.03 846 24.98 0.6 33.2 75 -3.3 26
01:15 1017 30.03 846 24.98 0.6 33.1 75 -3.3 26.1
01:20 1017 30.03 846 24.98 0.5 32.9 76 -3.3 26
01:25 1017 30.03 847 25.01 0.5 32.8 75 -3.4 25.9
01:30 1017 30.03 847 25.01 0.5 32.8 75 -3.4 25.9
01:35 1017 30.03 847 25.01 0.4 32.7 75 -3.5 25.7
01:40 1017 30.03 847 25.01 0.4 32.7 74 -3.7 25.4
01:45 1017 30.03 847 25.01 0.5 32.8 73 -3.8 25.2
01:50 1017 30.03 846 24.98 0.5 32.8 73 -3.8 25.2
01:55 1017 30.03 847 25.01 0.4 32.8 73 -3.8 25.1
02:00 1017 30.03 847 25.01 0.4 32.7 74 -3.8 25.2
02:05 1017 30.03 847 25.01 0.4 32.7 74 -3.8 25.2
02:10 1017 30.03 846 24.98 0.3 32.6 74 -3.7 25.3
02:15 1017 30.03 847 25.01 0.2 32.4 77 -3.4 25.9
02:20 1017 30.03 846 24.98 0.1 32.2 75 -3.7 25.3
02:25 1017 30.03 846 24.98 0.2 32.4 74 -3.9 25.1
02:30 1017 30.03 846 24.98 0.2 32.4 73 -4 24.8
02:35 1017 30.03 846 24.98 0.2 32.4 74 -4 24.8
02:40 1017 30.03 846 24.98 0.2 32.3 74 -4 24.9
02:45 1017 30.03 846 24.98 0.1 32.2 75 -3.7 25.3
02:50 1017 30.03 846 24.98 0 32 77 -3.5 25.6
02:55 1017 30.03 846 24.98 -0 31.9 75 -3.9 24.9
03:00 1017 30.03 847 25.01 0.1 32.1 74 -4 24.8
03:05 1017 30.03 847 25.01 0.1 32.1 74 -4 24.8
03:10 1017 30.03 847 25.01 0.1 32.1 73 -4.1 24.6
03:15 1017 30.03 847 25.01 0.1 32.2 73 -4.1 24.6
03:20 1017 30.03 847 25.01 0.1 32.2 72 -4.3 24.3
03:25 1017 30.03 847 25.01 0.2 32.3 72 -4.2 24.4
03:30 1017 30.03 847 25.01 0.2 32.3 72 -4.2 24.4
03:35 1017 30.03 847 25.01 0.2 32.3 72 -4.3 24.3
03:40 1017 30.03 847 25.01 0.2 32.3 71 -4.4 24.1
03:45 1017 30.03 847 25.01 0.2 32.3 72 -4.3 24.2
03:50 1017 30.03 847 25.01 0.1 32.2 72 -4.3 24.3
03:55 1017 30.03 847 25.01 0.1 32.2 72 -4.3 24.3
04:00 1017 30.03 846 24.98 0.1 32.2 73 -4.2 24.4
04:05 1017 30.03 846 24.98 0.1 32.2 73 -4.1 24.6
04:10 1017 30.03 846 24.98 0 32.1 74 -4.1 24.6
04:15 1017 30.03 846 24.98 0 32 73 -4.3 24.2
04:20 1017 30.03 846 24.98 -0 32 73 -4.4 24.1
04:25 1017 30.03 846 24.98 -0.1 31.9 72 -4.4 24
04:30 1017 30.03 846 24.98 -0.1 31.9 71 -4.7 23.5
04:35 1017 30.03 847 25.01 -0 32 71 -4.7 23.6
04:40 1017 30.03 847 25.01 0.1 32.1 69 -5 23.1
04:45 1017 30.03 847 25.01 0.1 32.2 70 -4.7 23.6
04:50 1017 30.03 847 25.01 -0 32 71 -4.6 23.7
04:55 1017 30.03 846 24.98 -0 31.9 71 -4.6 23.7
05:00 1017 30.03 846 24.98 0 32 70 -4.7 23.5
05:05 1017 30.03 846 24.98 0.1 32.2 70 -4.7 23.6
05:10 1017 30.03 847 25.01 0.1 32.2 71 -4.6 23.7
05:15 1017 30.03 846 24.98 0.1 32.2 71 -4.6 23.7
05:20 1017 30.03 846 24.98 0.1 32.2 71 -4.5 23.8
05:25 1017 30.03 846 24.98 0.1 32.2 71 -4.5 23.9
05:30 1017 30.03 846 24.98 0 32.1 72 -4.5 23.9
05:35 1017 30.03 846 24.98 -0 31.9 71 -4.7 23.5
05:40 1017 30.03 846 24.98 -0 31.9 71 -4.6 23.7
05:45 1017 30.03 846 24.98 -0.1 31.8 72 -4.5 23.9
05:50 1017 30.03 846 24.98 -0.2 31.6 73 -4.5 23.9
05:55 1017 30.03 846 24.98 -0.3 31.5 73 -4.5 24
06:00 1017 30.03 846 24.98 -0.3 31.5 73 -4.6 23.7
06:05 1017 30.03 846 24.98 -0.2 31.7 72 -4.6 23.8
06:10 1017 30.03 847 25.01 -0.2 31.7 72 -4.7 23.6
06:15 1017 30.03 847 25.01 -0.1 31.8 72 -4.6 23.7
06:20 1017 30.03 847 25.01 -0.2 31.7 72 -4.6 23.7
06:25 1017 30.03 847 25.01 -0.3 31.5 73 -4.6 23.8
06:30 1017 30.03 847 25.01 -0.4 31.3 75 -4.3 24.2
06:35 1017 30.03 847 25.01 -0.5 31.2 74 -4.6 23.8
06:40 1017 30.03 847 25.01 -0.4 31.2 74 -4.5 23.8
06:45 1018 30.06 847 25.01 -0.5 31.2 75 -4.4 24.1
06:50 1018 30.06 847 25.01 -0.5 31.1 75 -4.4 24.1
06:55 1018 30.06 847 25.01 -0.5 31.2 74 -4.6 23.8
07:00 1018 30.06 847 25.01 -0.4 31.2 74 -4.4 24
07:05 1018 30.06 847 25.01 -0.5 31.2 74 -4.5 23.9
07:10 1018 30.06 847 25.01 -0.4 31.3 73 -4.6 23.7
07:15 1018 30.06 847 25.01 -0.3 31.4 73 -4.6 23.7
07:20 1018 30.06 847 25.01 -0.3 31.5 72 -4.7 23.6
07:25 1018 30.06 847 25.01 -0.3 31.5 73 -4.6 23.7
07:30 1018 30.06 847 25.01 -0.3 31.4 73 -4.7 23.6
07:35 1018 30.06 847 25.01 -0.4 31.3 73 -4.6 23.6
07:40 1018 30.06 847 25.01 -0.4 31.2 73 -4.7 23.5
07:45 1018 30.06 847 25.01 -0.5 31.2 73 -4.7 23.6
07:50 1018 30.06 847 25.01 -0.5 31.1 74 -4.6 23.7
07:55 1018 30.06 847 25.01 -0.5 31.1 74 -4.6 23.7
08:00 1018 30.06 847 25.01 -0.5 31.2 73 -4.7 23.5
08:05 1018 30.06 847 25.01 -0.4 31.2 73 -4.7 23.5
08:10 1018 30.06 847 25.01 -0.3 31.4 71 -4.9 23.1
08:15 1018 30.06 847 25.01 -0.2 31.6 71 -4.8 23.3
08:20 1018 30.06 847 25.01 -0.2 31.6 71 -4.9 23.1
08:25 1018 30.06 847 25.01 -0.2 31.7 70 -5 22.9
08:30 1018 30.06 847 25.01 -0.2 31.7 69 -5.3 22.5
08:35 1018 30.06 847 25.01 -0.2 31.7 68 -5.3 22.4
08:40 1018 30.06 847 25.01 -0.2 31.6 69 -5.2 22.6
08:45 1018 30.06 847 25.01 -0.3 31.5 68 -5.4 22.2
08:50 1018 30.06 847 25.01 -0.2 31.6 69 -5.3 22.4
08:55 1018 30.06 847 25.01 -0.2 31.6 69 -5.3 22.4
09:00 1018 30.06 847 25.01 -0.2 31.7 69 -5.3 22.5
09:05 1018 30.06 847 25.01 -0.2 31.7 68 -5.4 22.4
09:10 1018 30.06 847 25.01 -0.1 31.8 68 -5.3 22.4
09:15 1018 30.06 847 25.01 -0.1 31.9 68 -5.2 22.6
09:20 1018 30.06 847 25.01 0 32.1 67 -5.4 22.3
09:25 1018 30.06 847 25.01 0.1 32.2 67 -5.3 22.5
09:30 1018 30.06 847 25.01 0.1 32.1 67 -5.4 22.3
09:35 1018 30.06 847 25.01 0.1 32.2 68 -5.1 22.8
09:40 1018 30.06 847 25.01 0.2 32.3 68 -5 23
09:45 1018 30.06 847 25.01 0.2 32.3 68 -5 23
09:50 1018 30.06 847 25.01 0.2 32.3 69 -4.9 23.2
09:55 1018 30.06 847 25.01 0.1 32.1 69 -4.9 23.3
10:00 1018 30.06 847 25.01 0.1 32.2 70 -4.8 23.3
10:05 1018 30.06 847 25.01 0.1 32.1 69 -4.9 23.2
10:10 1018 30.06 847 25.01 0.1 32.1 69 -5 22.9
10:15 1018 30.06 847 25.01 0.2 32.3 68 -5.1 22.8
10:20 1018 30.06 847 25.01 0.3 32.5 68 -5 23
10:25 1018 30.06 847 25.01 0.3 32.6 67 -5.1 22.9
10:30 1018 30.06 847 25.01 0.3 32.5 67 -5.1 22.9
10:35 1018 30.06 847 25.01 0.3 32.5 67 -5 22.9
10:40 1018 30.06 847 25.01 0.5 32.9 66 -5.1 22.7
10:45 1018 30.06 847 25.01 0.7 33.2 65 -5.2 22.7
10:50 1018 30.06 847 25.01 0.9 33.5 64 -5.3 22.5
10:55 1018 30.06 847 25.01 0.9 33.6 64 -5.1 22.8
11:00 1018 30.06 847 25.01 1 33.7 64 -5.1 22.9
11:05 1018 30.06 847 25.01 1.2 34.1 62 -5.2 22.6
11:10 1018 30.06 847 25.01 1 33.9 64 -5 23
11:15 1018 30.06 847 25.01 1 33.7 63 -5.2 22.6
11:20 1018 30.06 847 25.01 0.8 33.5 63 -5.4 22.3
11:25 1018 30.06 847 25.01 0.9 33.6 64 -5.2 22.6
11:30 1018 30.06 847 25.01 1.1 34 62 -5.4 22.3
11:35 1018 30.06 847 25.01 1 33.7 62 -5.5 22
11:40 1018 30.06 847 25.01 0.9 33.5 63 -5.4 22.3
11:45 1018 30.06 847 25.01 1 33.7 63 -5.3 22.4
11:50 1018 30.06 847 25.01 1.2 34.2 62 -5.3 22.4
11:55 1018 30.06 847 25.01 1.8 35.3 60 -5.2 22.6
12:00 1018 30.06 847 25.01 1.9 35.4 60 -5 23
12:05 1018 30.06 847 25.01 1.8 35.3 60 -5.1 22.8
12:10 1018 30.06 847 25.01 1.8 35.3 61 -4.8 23.3
12:15 1018 30.06 847 25.01 2.2 36 60 -4.8 23.4
12:20 1018 30.06 847 25.01 2 35.5 61 -4.8 23.3
12:25 1018 30.06 847 25.01 1.7 35 62 -4.9 23.3
12:30 1018 30.06 847 25.01 1.8 35.2 61 -4.9 23.2
12:35 1018 30.06 847 25.01 1.8 35.2 62 -4.7 23.6
12:40 1018 30.06 847 25.01 1.8 35.2 61 -4.9 23.2
12:45 1018 30.06 847 25.01 2.1 35.9 61 -4.7 23.6
12:50 1018 30.06 847 25.01 2.5 36.6 59 -4.6 23.6
12:55 1018 30.06 847 25.01 2.4 36.3 60 -4.5 23.9
13:00 1018 30.06 847 25.01 2.5 36.4 58 -5 23.1
13:05 1018 30.06 847 25.01 2.8 37.1 57 -4.8 23.4
13:10 1018 30.06 847 25.01 2.6 36.6 58 -4.9 23.2
13:15 1018 30.06 847 25.01 2.6 36.7 59 -4.7 23.6
13:20 1018 30.06 847 25.01 2.4 36.3 59 -4.7 23.5
13:25 1018 30.06 847 25.01 2.3 36.2 60 -4.7 23.6
13:30 1018 30.06 847 25.01 2.2 36 60 -4.7 23.5
13:35 1018 30.06 847 25.01 2.2 36 60 -4.7 23.5
13:40 1018 30.06 847 25.01 2.4 36.3 58 -5 23
13:45 1018 30.06 847 25.01 2.3 36.2 58 -5 23
13:50 1017 30.03 847 25.01 2.3 36.2 59 -4.9 23.2
13:55 1017 30.03 847 25.01 2.4 36.3 58 -5 23.1
14:00 1017 30.03 847 25.01 2.3 36.2 61 -4.4 24
14:05 1017 30.03 847 25.01 2.1 35.7 62 -4.5 23.9
14:10 1017 30.03 847 25.01 1.9 35.5 62 -4.5 23.8
14:15 1017 30.03 847 25.01 1.9 35.5 63 -4.4 24.1
14:20 1017 30.03 847 25.01 1.7 35.1 63 -4.5 23.9
14:25 1017 30.03 847 25.01 1.6 34.9 63 -4.7 23.5
14:30 1017 30.03 846 24.98 1.7 35 63 -4.6 23.7
14:35 1017 30.03 846 24.98 1.7 35 64 -4.5 23.9
14:40 1017 30.03 847 25.01 1.8 35.3 61 -4.8 23.3
14:45 1017 30.03 847 25.01 2.1 35.7 60 -4.9 23.2
14:50 1017 30.03 847 25.01 2.2 36 61 -4.6 23.7
14:55 1017 30.03 847 25.01 2.3 36.1 61 -4.5 23.8
15:00 1017 30.03 846 24.98 2.2 36 60 -4.7 23.6
15:05 1017 30.03 847 25.01 2.1 35.7 62 -4.5 23.9
15:10 1017 30.03 847 25.01 1.9 35.5 62 -4.6 23.7
15:15 1017 30.03 847 25.01 2 35.6 63 -4.3 24.3
15:20 1017 30.03 847 25.01 2 35.6 63 -4.3 24.3
15:25 1017 30.03 847 25.01 2 35.5 63 -4.3 24.2
15:30 1017 30.03 847 25.01 2.1 35.7 65 -3.9 24.9
15:35 1017 30.03 847 25.01 2 35.6 64 -4.2 24.5
15:40 1017 30.03 847 25.01 1.8 35.2 63 -4.4 24
15:45 1017 30.03 847 25.01 1.9 35.4 64 -4.3 24.3
15:50 1017 30.03 847 25.01 2 35.6 63 -4.3 24.3
15:55 1017 30.03 847 25.01 1.8 35.3 64 -4.3 24.3
16:00 1017 30.03 847 25.01 1.8 35.3 64 -4.2 24.4
16:05 1017 30.03 847 25.01 1.9 35.4 64 -4.2 24.5
16:10 1017 30.03 847 25.01 2 35.6 65 -3.9 25
16:15 1017 30.03 847 25.01 2 35.6 65 -3.8 25.1
16:20 1017 30.03 847 25.01 2.1 35.8 64 -3.9 25
16:25 1017 30.03 847 25.01 2.1 35.8 65 -3.8 25.2
16:30 1017 30.03 847 25.01 2.1 35.7 65 -3.9 25
16:35 1017 30.03 847 25.01 2.3 36.2 64 -3.9 25
16:40 1017 30.03 847 25.01 2.3 36.2 65 -3.5 25.7
16:45 1017 30.03 847 25.01 2.1 35.8 65 -3.8 25.2
16:50 1017 30.03 847 25.01 2.1 35.8 66 -3.6 25.5
16:55 1017 30.03 847 25.01 1.9 35.4 67 -3.7 25.4
17:00 1017 30.03 847 25.01 1.7 35 68 -3.7 25.4
17:05 1017 30.03 847 25.01 1.8 35.2 68 -3.5 25.7
17:10 1018 30.06 847 25.01 1.8 35.2 68 -3.5 25.6
17:15 1018 30.06 847 25.01 1.8 35.3 67 -3.6 25.5
17:20 1018 30.06 847 25.01 1.8 35.3 67 -3.7 25.4
17:25 1018 30.06 847 25.01 1.9 35.4 67 -3.5 25.7
17:30 1018 30.06 847 25.01 1.8 35.2 67 -3.8 25.2
17:35 1018 30.06 847 25.01 1.7 35.1 66 -3.9 25
17:40 1018 30.06 847 25.01 1.7 35.1 68 -3.6 25.4
17:45 1018 30.06 847 25.01 1.7 35 69 -3.4 25.8
17:50 1018 30.06 847 25.01 1.4 34.6 70 -3.4 25.9
17:55 1018 30.06 847 25.01 1.3 34.4 70 -3.6 25.5
18:00 1018 30.06 847 25.01 1.2 34.2 70 -3.7 25.3
18:05 1018 30.06 847 25.01 1.2 34.2 69 -3.8 25.2
18:10 1018 30.06 847 25.01 1.2 34.1 70 -3.6 25.4
18:15 1018 30.06 847 25.01 1.1 34 70 -3.7 25.4
18:20 1018 30.06 847 25.01 1.1 33.9 72 -3.5 25.7
18:25 1018 30.06 847 25.01 1 33.8 72 -3.6 25.6
18:30 1018 30.06 847 25.01 0.9 33.6 72 -3.6 25.6
18:35 1018 30.06 847 25.01 0.9 33.6 72 -3.6 25.5
18:40 1018 30.06 847 25.01 0.8 33.4 71 -3.9 25.1
18:45 1018 30.06 847 25.01 0.8 33.4 71 -3.8 25.1
18:50 1018 30.06 847 25.01 0.7 33.3 72 -3.7 25.3
18:55 1018 30.06 847 25.01 0.6 33.1 72 -3.8 25.2
19:00 1018 30.06 847 25.01 0.6 33.1 73 -3.7 25.4
19:05 1018 30.06 847 25.01 0.6 33 73 -3.7 25.3
19:10 1018 30.06 847 25.01 0.6 33 73 -3.7 25.3
19:15 1018 30.06 847 25.01 0.5 32.9 73 -3.8 25.2
19:20 1018 30.06 847 25.01 0.4 32.8 73 -3.8 25.1
19:25 1018 30.06 847 25.01 0.4 32.8 73 -3.8 25.1
19:30 1018 30.06 847 25.01 0.4 32.7 74 -3.8 25.2
19:35 1018 30.06 847 25.01 0.3 32.6 74 -3.8 25.1
19:40 1018 30.06 847 25.01 0.3 32.6 74 -3.8 25.2
19:45 1018 30.06 847 25.01 0.3 32.6 74 -3.8 25.2
19:50 1018 30.06 847 25.01 0.3 32.5 74 -3.8 25.2
19:55 1018 30.06 847 25.01 0.2 32.4 74 -3.8 25.1
20:00 1018 30.06 847 25.01 0.2 32.4 74 -3.9 25.1
20:05 1018 30.06 847 25.01 0.2 32.3 74 -3.8 25.1
20:10 1018 30.06 847 25.01 0.1 32.3 75 -3.8 25.2
20:15 1018 30.06 847 25.01 0.1 32.2 75 -3.8 25.2
20:20 1018 30.06 847 25.01 0.1 32.1 75 -3.9 25
20:25 1018 30.06 847 25.01 0.1 32.1 75 -3.9 25
20:30 1018 30.06 847 25.01 0.1 32.2 74 -3.9 24.9
20:35 1018 30.06 847 25.01 0.1 32.2 74 -4 24.9
20:40 1018 30.06 847 25.01 0.1 32.2 74 -4 24.9
20:45 1018 30.06 847 25.01 0.1 32.3 73 -4.1 24.7
20:50 1018 30.06 847 25.01 0.2 32.3 73 -4.1 24.6
20:55 1018 30.06 847 25.01 0.2 32.4 73 -4.1 24.6
21:00 1018 30.06 847 25.01 0.2 32.3 73 -4.1 24.6
21:05 1018 30.06 847 25.01 0.2 32.3 74 -4 24.8
21:10 1018 30.06 847 25.01 0.1 32.2 74 -4 24.8
21:15 1018 30.06 847 25.01 0.1 32.2 74 -4 24.8
21:20 1018 30.06 847 25.01 0.1 32.2 74 -4 24.8
21:25 1018 30.06 847 25.01 0.1 32.2 74 -4 24.9
21:30 1018 30.06 847 25.01 0.1 32.1 74 -4 24.8
21:35 1018 30.06 847 25.01 0.1 32.1 74 -4 24.9
21:40 1018 30.06 847 25.01 0 32.1 75 -4 24.9
21:45 1018 30.06 847 25.01 0.1 32.1 74 -4 24.8
21:50 1018 30.06 847 25.01 0.1 32.1 74 -4 24.8
21:55 1018 30.06 847 25.01 0.1 32.1 74 -4 24.9
22:00 1018 30.06 847 25.01 0 32.1 75 -3.9 24.9
22:05 1018 30.06 847 25.01 0.1 32.1 75 -3.9 24.9
22:10 1018 30.06 847 25.01 0.1 32.1 75 -3.9 25
22:15 1018 30.06 847 25.01 0.1 32.1 75 -3.9 25.1
22:20 1018 30.06 847 25.01 0 32.1 75 -3.8 25.1
22:25 1018 30.06 847 25.01 0 32 76 -3.8 25.2
22:30 1018 30.06 847 25.01 -0 31.9 76 -3.7 25.3
22:35 1018 30.06 847 25.01 -0.1 31.9 77 -3.7 25.4
22:40 1018 30.06 847 25.01 -0.1 31.8 77 -3.7 25.3
22:45 1018 30.06 847 25.01 -0.1 31.8 77 -3.7 25.4
22:50 1018 30.06 847 25.01 -0.1 31.9 77 -3.7 25.4
22:55 1018 30.06 847 25.01 -0.1 31.8 77 -3.7 25.3
23:00 1018 30.06 847 25.01 -0.1 31.8 77 -3.7 25.3
23:05 1018 30.06 848 25.04 -0.1 31.8 77 -3.7 25.4
23:10 1018 30.06 848 25.04 -0.1 31.8 77 -3.7 25.3
23:15 1018 30.06 848 25.04 -0.1 31.7 77 -3.7 25.4
23:20 1018 30.06 848 25.04 -0.1 31.8 77 -3.7 25.4
23:25 1018 30.06 848 25.04 -0.2 31.7 77 -3.7 25.4
23:30 1018 30.06 848 25.04 -0.2 31.7 77 -3.7 25.4
23:35 1018 30.06 848 25.04 -0.2 31.6 78 -3.7 25.4
23:40 1018 30.06 848 25.04 -0.2 31.6 77 -3.7 25.3
23:45 1018 30.06 847 25.01 -0.2 31.6 77 -3.7 25.3
23:50 1018 30.06 848 25.04 -0.3 31.5 78 -3.7 25.3
23:55 1018 30.06 848 25.04 -0.3 31.5 78 -3.7 25.3
24:00 1018 30.06 848 25.04 -0.3 31.5 78 -3.7 25.4